Date,TemperatureHighF,TemperatureAvgF,TemperatureLowF,DewpointHighF,DewpointAvgF,DewpointLowF,HumidityHigh,HumidityAvg,HumidityLow,PressureMaxIn,PressureMinIn,WindSpeedMaxMPH,WindSpeedAvgMPH,GustSpeedMaxMPH,PrecipitationSumIn
2013-1-1,45,41,38,41,38,36,96,90,85,29.97,29.38,14,4,17,0.20
2013-1-2,50,45,39,50,45,38,98,97,93,30.15,29.97,10,2,10,0.43
2013-1-3,51,50,49,50,49,48,98,97,93,30.48,30.15,13,5,20,0.04
2013-1-4,50,49,48,50,48,47,98,97,94,30.53,30.48,9,3,10,0.04
2013-1-5,50,49,46,49,48,45,98,96,91,30.50,30.33,13,4,17,0.16
2013-1-6,48,46,44,48,46,42,98,97,94,30.50,30.27,8,2,10,0.28
2013-1-7,49,48,48,48,48,47,98,98,98,30.27,30.06,3,0,5,0.59
2013-1-8,50,48,44,50,46,41,98,94,84,30.24,30.00,12,3,12,0.39
2013-1-9,46,43,40,44,41,38,96,93,88,30.24,30.12,6,0,7,0.00
2013-1-10,41,37,36,38,36,34,98,96,93,30.12,30.03,5,1,7,0.00
2013-1-11,41,39,38,40,39,37,98,98,97,30.09,30.00,8,2,10,0.00
2013-1-12,39,38,36,37,36,34,98,94,90,30.18,29.97,8,3,10,0.00
2013-1-13,37,36,34,36,34,33,98,96,91,30.18,30.03,6,1,8,0.20
2013-1-14,37,36,32,37,34,30,98,93,86,30.03,29.83,7,2,12,0.24
2013-1-15,36,33,31,34,31,29,95,92,89,30.03,29.88,7,2,9,0.00
2013-1-16,33,32,30,29,28,27,93,85,80,30.00,29.85,8,4,9,0.00
2013-1-17,35,34,33,30,28,26,87,79,72,30.00,29.80,14,6,16,0.00
2013-1-18,35,34,32,29,23,19,80,65,54,29.80,29.59,16,8,23,0.00
2013-1-19,37,34,33,31,29,25,91,81,72,29.80,29.59,15,7,23,0.00
2013-1-20,34,33,32,31,29,27,92,85,77,29.77,29.59,12,6,14,0.00
2013-1-21,34,34,33,34,32,30,98,94,85,29.59,29.50,23,9,23,0.08
2013-1-22,36,35,34,34,33,31,96,92,86,29.88,29.53,15,6,20,0.08
2013-1-23,35,34,33,34,33,32,96,94,89,30.00,29.85,8,3,13,0.00
2013-1-24,37,35,34,35,32,29,97,88,74,30.09,30.00,7,2,10,0.00
2013-1-25,36,34,33,35,33,32,98,94,88,30.00,29.44,8,3,12,0.00
2013-1-26,46,38,34,45,36,33,98,94,83,29.65,28.97,14,3,14,1.32
2013-1-27,49,42,38,48,40,36,98,93,83,29.26,28.82,20,7,24,0.28
2013-1-28,46,42,39,45,40,36,98,92,82,29.38,28.91,17,8,24,0.39
2013-1-29,50,46,44,50,42,33,98,86,61,29.38,29.00,23,8,28,0.66
2013-1-30,45,43,40,40,36,32,91,77,63,29.74,29.15,22,8,27,0.16
2013-1-31,45,42,40,41,38,35,95,86,77,29.71,29.24,18,6,23,0.44
2013-2-1,43,40,34,42,35,27,96,84,66,29.91,29.41,12,3,13,0.24
2013-2-2,39,35,31,35,29,26,89,79,69,30.27,29.91,7,1,8,0.04
2013-2-3,48,44,37,48,42,35,98,90,76,30.09,29.59,23,8,23,0.39
2013-2-4,47,40,35,42,32,27,84,75,63,29.65,29.38,30,11,33,0.20
2013-2-5,43,39,34,39,33,27,94,79,60,29.68,29.15,25,9,30,0.24
2013-2-6,42,38,34,29,25,23,74,60,53,30.24,29.68,22,5,29,0.00
2013-2-7,40,37,34,34,32,27,89,80,74,30.21,30.06,12,2,12,0.00
2013-2-8,43,40,36,39,35,32,95,84,74,30.27,30.15,10,2,10,0.00
2013-2-9,41,40,37,40,39,37,98,97,95,30.18,29.85,9,3,10,0.16
2013-2-10,38,36,34,37,35,34,98,98,96,29.85,29.44,16,8,20,0.67
2013-2-11,41,37,35,36,32,27,98,81,64,30.00,29.50,13,7,20,0.04
2013-2-12,39,36,34,29,28,26,80,73,61,30.15,30.00,8,4,10,0.00
2013-2-13,42,35,33,41,32,25,98,89,66,30.09,29.56,9,4,10,0.65
2013-2-14,45,42,40,44,41,39,98,95,90,29.91,29.59,13,3,16,0.24
2013-2-15,48,43,38,42,39,34,93,86,74,30.18,29.91,10,2,11,0.00
2013-2-16,45,42,39,44,41,37,98,96,90,30.18,30.15,5,1,6,0.12
2013-2-17,48,43,36,43,38,32,97,83,70,30.18,30.12,6,2,8,0.00
2013-2-18,43,37,33,38,32,28,94,83,71,30.21,30.12,7,1,7,0.00
2013-2-19,43,36,30,37,31,26,92,83,61,30.21,30.18,7,2,15,0.00
2013-2-20,42,39,34,39,35,27,96,84,72,30.36,30.21,12,4,12,0.00
2013-2-21,38,34,30,28,24,20,82,69,56,30.39,30.33,9,4,11,0.00
2013-2-22,36,34,33,25,21,19,70,59,54,30.39,30.33,5,1,8,0.00
2013-2-23,38,34,32,30,25,22,83,70,56,30.48,30.33,5,1,6,0.00
2013-2-24,42,36,31,33,30,27,88,78,64,30.56,30.44,5,0,5,0.00
2013-2-25,44,36,30,34,29,26,90,77,62,30.68,30.56,7,2,8,0.00
2013-2-26,45,37,32,35,31,28,93,79,62,30.77,30.68,13,3,13,0.00
2013-2-27,44,36,31,40,33,26,94,87,80,30.77,30.65,3,0,5,0.00
2013-2-28,48,40,32,42,36,29,96,86,75,30.65,30.59,2,0,2,0.00
2013-3-1,49,42,36,40,34,30,87,74,56,30.62,30.53,5,0,6,0.00
2013-3-2,52,45,36,45,39,30,93,80,65,30.50,30.33,8,2,12,0.00
2013-3-3,46,44,42,44,40,36,91,84,77,30.33,30.18,3,0,5,0.00
2013-3-4,45,42,38,36,34,32,82,75,62,30.18,29.83,5,0,6,0.00
2013-3-5,47,41,35,38,34,31,86,76,58,29.83,29.74,8,1,10,0.00
2013-3-6,42,40,37,38,36,32,94,85,79,29.80,29.71,15,7,19,0.00
2013-3-7,44,41,39,43,40,37,98,95,87,29.71,29.59,20,11,29,0.20
2013-3-8,41,40,39,39,37,36,96,91,86,29.77,29.59,25,13,26,0.04
2013-3-9,39,38,36,38,33,25,95,84,65,29.97,29.74,18,10,25,0.04
2013-3-10,40,35,30,31,25,20,82,68,51,30.21,29.97,15,7,23,0.00
2013-3-11,38,32,27,22,18,14,71,57,43,30.24,30.21,15,4,18,0.00
2013-3-12,43,35,27,29,23,14,68,60,52,30.21,30.00,10,3,17,0.00
2013-3-13,45,38,33,31,24,20,76,57,43,30.09,29.94,8,2,11,0.00
2013-3-14,43,38,32,40,33,22,95,82,63,30.06,29.65,7,1,9,0.12
2013-3-15,47,42,36,42,38,31,97,86,64,29.65,29.44,8,2,12,0.04
2013-3-16,43,39,36,37,34,32,91,85,72,29.44,29.29,7,1,9,0.08
2013-3-17,43,38,36,40,36,34,95,92,87,29.35,29.20,9,3,14,0.08
2013-3-18,39,37,34,39,34,26,98,88,73,29.62,29.32,18,8,24,0.25
2013-3-19,42,36,34,33,29,26,96,77,59,29.74,29.59,25,12,30,0.00
2013-3-20,40,36,33,36,32,28,97,84,67,30.12,29.74,13,6,13,0.12
2013-3-21,42,36,31,32,27,22,93,71,51,30.15,30.00,31,8,35,0.00
2013-3-22,36,34,33,33,30,23,97,83,59,30.06,29.94,23,12,30,0.00
2013-3-23,35,34,33,32,26,19,94,72,56,30.24,30.03,21,10,30,0.00
2013-3-24,38,35,33,25,22,20,70,59,50,30.36,30.21,25,11,30,0.00
2013-3-25,37,34,33,30,26,22,82,71,60,30.36,30.33,15,7,18,0.00
2013-3-26,38,34,31,32,26,24,84,72,58,30.33,30.24,14,5,14,0.00
2013-3-27,43,36,30,30,26,24,85,70,51,30.24,30.18,12,4,14,0.00
2013-3-28,41,35,32,30,24,19,80,65,49,30.18,30.12,13,5,15,0.00
2013-3-29,42,35,31,30,24,20,79,65,50,30.12,30.00,14,4,17,0.00
2013-3-30,46,37,30,30,24,22,76,59,49,30.09,30.03,7,2,9,0.00
2013-3-31,43,38,32,26,22,20,71,55,42,30.09,30.03,13,5,14,0.00
2013-4-1,44,36,31,24,22,20,70,56,46,30.18,30.06,14,6,17,0.00
2013-4-2,49,40,34,29,25,22,63,54,44,30.33,30.18,10,4,12,0.00
2013-4-3,49,40,32,33,26,21,78,58,43,30.39,30.33,9,3,11,0.00
2013-4-4,49,42,34,30,26,23,66,54,42,30.39,30.33,10,3,13,0.00
2013-4-5,49,42,35,33,28,24,75,59,45,30.33,30.30,8,2,8,0.00
2013-4-6,53,42,31,36,29,22,76,61,51,30.36,30.27,7,2,9,0.00
2013-4-7,48,41,37,36,33,32,81,72,62,30.27,30.06,15,5,19,0.00
2013-4-8,44,39,34,35,28,22,83,65,48,30.06,29.83,14,7,17,0.00
2013-4-9,48,40,32,29,24,20,71,54,38,29.83,29.74,15,7,20,0.00
2013-4-10,47,41,37,37,33,29,82,72,59,29.80,29.68,12,5,14,0.00
2013-4-11,43,40,38,40,36,33,91,86,79,29.68,29.50,12,6,16,0.04
2013-4-12,42,39,36,41,38,34,96,94,87,29.74,29.44,14,4,15,0.24
2013-4-13,53,46,40,49,40,34,97,83,50,29.80,29.47,15,3,15,0.00
2013-4-14,57,52,49,52,48,44,98,86,64,29.50,29.41,25,10,30,0.00
2013-4-15,57,51,48,48,45,41,93,79,57,29.80,29.47,22,6,25,0.00
2013-4-16,51,48,46,46,42,36,95,80,58,29.91,29.38,20,9,33,0.00
2013-4-17,50,46,42,50,43,36,98,89,72,29.91,29.15,15,6,27,0.00
2013-4-18,53,48,45,47,42,37,98,81,60,30.00,29.15,23,8,23,0.00
2013-4-19,58,50,40,40,35,32,76,58,45,30.50,30.00,12,4,13,0.00
2013-4-20,58,51,42,44,39,34,80,63,48,30.50,30.21,14,4,19,0.00
2013-4-21,56,49,46,48,42,37,92,76,55,30.21,29.91,17,4,17,0.00
2013-4-22,54,48,46,49,42,39,98,78,61,29.91,29.71,20,7,29,0.00
2013-4-23,56,50,47,42,39,35,80,66,51,30.12,29.83,20,8,24,0.00
2013-4-24,56,50,46,47,40,31,94,70,47,30.33,29.97,10,3,15,0.00
2013-4-25,51,46,42,45,38,34,82,73,61,30.30,30.12,12,3,13,0.00
2013-4-26,54,46,41,43,37,34,84,70,52,30.12,29.97,15,4,22,0.00
2013-4-27,58,48,38,37,32,28,74,55,40,30.21,30.03,13,4,13,0.00
2013-4-28,53,46,43,45,39,31,95,77,57,30.03,29.71,17,6,22,0.00
2013-4-29,56,48,42,41,36,33,82,64,46,30.18,29.68,22,8,24,0.00
2013-4-30,60,50,38,38,34,30,74,55,38,30.39,30.18,10,4,15,0.00
2013-5-1,58,51,44,46,37,29,86,59,43,30.33,30.15,13,5,16,0.00
2013-5-2,50,45,38,46,36,26,91,70,55,30.33,30.06,9,2,14,0.00
2013-5-3,50,48,44,50,46,38,97,92,80,30.06,29.74,16,6,21,0.00
2013-5-4,54,47,40,44,39,34,85,75,54,29.94,29.80,13,5,15,0.00
2013-5-5,59,52,48,55,49,42,97,88,72,30.12,29.94,12,4,13,0.00
2013-5-6,53,52,50,51,50,48,95,93,89,30.15,30.06,7,1,9,0.00
2013-5-7,69,59,46,52,47,42,95,67,39,30.15,29.91,7,2,10,0.00
2013-5-8,60,53,50,54,46,39,95,78,51,29.91,29.53,20,8,24,0.00
2013-5-9,52,49,46,46,42,39,90,79,68,29.59,29.41,14,4,14,0.00
2013-5-10,59,49,42,49,44,38,90,82,63,29.71,29.47,9,2,10,0.00
2013-5-11,50,48,45,47,44,41,95,86,77,29.85,29.53,13,3,15,0.00
2013-5-12,51,48,43,50,44,37,96,87,78,29.85,29.68,10,3,15,0.00
2013-5-13,51,44,39,43,39,35,88,80,61,29.71,29.50,21,5,23,0.00
2013-5-14,53,47,42,46,40,36,93,80,58,29.50,29.41,12,4,16,0.00
2013-5-15,62,50,41,44,37,34,82,63,40,29.50,29.41,15,5,18,0.00
2013-5-16,56,50,43,41,37,34,77,62,47,29.77,29.47,8,2,10,0.00
2013-5-17,67,59,43,43,40,36,79,52,38,29.97,29.77,9,3,12,0.00
2013-5-18,67,67,67,40,40,40,38,38,38,29.94,29.77,10,2,17,0.00
2013-5-19,67,67,67,40,40,40,38,38,38,30.06,29.88,3,0,3,0.00
2013-5-20,67,67,67,40,40,40,38,38,38,30.12,30.00,12,3,18,0.00
2013-5-21,67,67,67,40,40,40,38,38,38,30.21,30.12,13,5,15,0.00
2013-5-22,67,67,67,40,40,40,38,38,38,30.21,30.18,12,3,12,0.00
2013-5-23,67,67,67,40,40,40,38,38,38,30.03,30.03,13,7,17,0.00
2013-6-16,67,67,67,40,40,40,38,38,38,29.85,29.83,0,0,0,0.00
2013-7-11,67,67,67,40,40,40,38,38,38,30.39,30.39,3,3,7,0.00
2013-7-16,67,67,67,40,40,40,38,38,38,30.30,30.30,3,3,5,0.00
2013-8-3,67,67,67,40,40,40,38,38,38,29.91,29.77,8,2,12,0.00
2013-8-4,67,67,67,40,40,40,38,38,38,29.91,29.88,1,0,4,0.00
2013-8-8,67,67,67,40,40,40,38,38,38,30.12,29.97,5,1,6,0.00
2013-8-9,67,67,67,40,40,40,38,38,38,30.21,29.94,14,2,14,0.00
2013-8-10,67,67,67,40,40,40,38,38,38,30.21,30.06,6,1,8,0.00
2013-8-11,67,67,67,40,40,40,38,38,38,30.06,29.94,5,1,7,0.00
2013-8-19,67,67,67,40,40,40,38,38,38,30.06,30.06,3,2,6,0.00
2013-8-22,67,67,67,40,40,40,38,38,38,30.21,30.21,3,2,3,0.00
2013-8-24,67,67,67,40,40,40,38,38,38,29.97,29.97,2,2,3,0.00
2013-8-29,67,67,67,40,40,40,38,38,38,30.09,30.09,0,0,3,0.00
2013-9-4,67,67,67,40,40,40,38,38,38,30.15,30.15,0,0,3,0.00
2013-9-6,67,67,67,40,40,40,38,38,38,30.03,29.97,8,2,8,0.00
2013-9-7,67,67,67,40,40,40,38,38,38,29.97,29.83,9,1,10,0.00
2013-9-8,67,67,67,40,40,40,38,38,38,30.03,29.94,6,2,12,0.00
2013-9-14,67,67,67,40,40,40,38,38,38,30.09,29.97,0,0,2,0.00
2013-9-15,67,67,67,40,40,40,38,38,38,29.97,29.26,15,3,21,0.00
2013-9-16,67,67,67,40,40,40,38,38,38,29.41,29.32,20,4,23,0.00
2013-9-17,67,67,67,40,40,40,38,38,38,29.47,29.35,18,5,20,0.00
2013-9-18,67,67,67,40,40,40,38,38,38,29.56,29.47,0,0,0,0.00
2013-10-9,67,67,67,40,40,40,38,38,38,30.24,30.03,24,6,25,0.00
2013-10-10,67,67,67,40,40,40,38,38,38,30.50,30.24,10,2,13,0.00
2013-10-11,67,67,67,40,40,40,38,38,38,30.56,30.48,8,1,10,0.00
2013-10-12,67,67,67,40,40,40,38,38,38,30.56,30.33,10,3,13,0.00
2013-10-13,67,67,67,40,40,40,38,38,38,30.33,30.12,13,2,13,0.00
2013-10-14,67,67,67,40,40,40,38,38,38,30.12,30.00,6,1,9,0.00
2013-10-15,67,67,67,40,40,40,38,38,38,30.00,29.97,3,1,9,0.00
2013-10-31,67,67,67,40,40,40,38,38,38,29.65,29.65,3,3,12,0.00
2013-12-3,67,67,67,40,40,40,38,38,38,30.27,30.15,8,3,12,0.00
2013-12-4,67,67,67,40,40,40,38,38,38,30.39,30.12,14,4,22,0.00
2013-12-5,67,67,67,40,40,40,38,38,38,30.21,29.50,32,11,47,0.00
2013-12-6,67,67,67,40,40,40,38,38,38,30.21,30.18,16,10,17,0.00
2013-12-7,67,67,67,40,40,40,38,38,38,30.09,30.09,5,3,8,0.00
2013-12-14,67,67,67,40,40,40,38,38,38,29.85,29.41,30,10,38,0.00
2013-12-15,67,67,67,40,40,40,38,38,38,29.85,29.56,18,5,32,0.00
2013-12-16,67,67,67,40,40,40,38,38,38,29.56,29.53,17,6,20,0.00
2013-12-17,67,67,67,40,40,40,38,38,38,29.85,29.74,17,8,17,0.00
2013-12-18,67,67,67,40,40,40,38,38,38,29.74,28.76,26,8,34,0.00
2013-12-19,67,67,67,40,40,40,38,38,38,29.50,28.79,20,8,27,0.00
2013-12-20,67,67,67,40,40,40,38,38,38,29.74,29.38,18,7,26,0.00
2013-12-21,67,67,67,40,40,40,38,38,38,29.50,29.29,17,6,24,0.00
2013-12-22,67,67,67,40,40,40,38,38,38,29.53,29.32,17,7,22,0.00
2013-12-23,67,67,67,40,40,40,38,38,38,29.53,28.29,21,6,22,0.00
2013-12-24,67,67,67,40,40,40,38,38,38,28.44,28.26,29,12,44,0.00
2013-12-25,67,67,67,40,40,40,38,38,38,29.09,28.44,17,7,23,0.00
2013-12-26,67,67,67,40,40,40,38,38,38,29.32,28.61,22,3,22,0.00
2013-12-27,67,67,67,40,40,40,38,38,38,28.79,28.14,26,9,32,0.00
2013-12-28,67,67,67,40,40,40,38,38,38,29.35,28.79,13,5,24,0.00
2014-1-2,67,67,67,40,40,40,38,38,38,29.00,28.91,9,6,10,0.00